Time;durP1;ratioP1;P1;durP2;ratioP2;P2;SDS_P1;SDS_P2;PMS_P1;PMS_P2;Temp;Humidity;BMP_temperature;BMP_pressure;BME280_temperature;BME280_humidity;BME280_pressure;Samples;Min_cycle;Max_cycle;Signal;HPM_P1;HPM_P2
2022/11/11 00:04:57;;;;;;;3.43;1.67;;;;;;;;;;20947120;28;20224;-65
2022/11/11 00:15:18;;;;;;;2.70;1.43;;;;;;;;;;20956055;28;20217;-65
2022/11/11 00:25:38;;;;;;;2.70;1.30;;;;;;;;;;20977523;28;20679;-66
2022/11/11 00:35:59;;;;;;;2.23;1.50;;;;;;;;;;20976403;28;20237;-65
2022/11/11 00:56:59;;;;;;;2.20;1.30;;;;;;;;;;20986456;28;20708;-65
2022/11/11 01:07:20;;;;;;;2.53;1.40;;;;;;;;;;20942720;28;20221;-65
2022/11/11 01:17:40;;;;;;;1.70;1.07;;;;;;;;;;20974175;28;20201;-65
2022/11/11 01:28:00;;;;;;;1.80;1.23;;;;;;;;;;20955696;28;20623;-65
2022/11/11 01:38:20;;;;;;;1.83;1.13;;;;;;;;;;20941957;28;20268;-65
2022/11/11 01:59:35;;;;;;;1.93;1.10;;;8.10;99.90;;;;;;20956791;28;20567;-65
2022/11/11 02:09:57;;;;;;;1.43;1.10;;;8.00;99.90;;;;;;20954131;28;20220;-65
2022/11/11 02:20:22;;;;;;;1.77;1.10;;;8.00;99.90;;;;;;20965248;28;20224;-65
2022/11/11 02:30:43;;;;;;;1.73;1.13;;;;;;;;;;20983150;28;20213;-65
2022/11/11 02:51:42;;;;;;;2.17;1.13;;;;;;;;;;20983195;28;20588;-65
2022/11/11 03:02:03;;;;;;;2.40;1.00;;;;;;;;;;20968595;28;20237;-65
2022/11/11 03:12:24;;;;;;;1.57;0.70;;;;;;;;;;20968294;28;20212;-65
2022/11/11 03:22:44;;;;;;;2.73;1.30;;;;;;;;;;20964676;28;20269;-65
2022/11/11 03:33:05;;;;;;;1.60;0.90;;;;;;;;;;20977118;28;20699;-65
2022/11/11 03:43:27;;;;;;;2.43;1.30;;;7.70;99.90;;;;;;20964130;28;20213;-65
2022/11/11 03:53:47;;;;;;;2.47;1.23;;;;;;;;;;20950269;28;20627;-65
2022/11/11 04:36:07;;;;;;;3.37;1.10;;;;;;;;;;20978930;28;20228;-65
2022/11/11 04:46:27;;;;;;;4.10;1.40;;;;;;;;;;20950110;28;20214;-65
2022/11/11 04:56:48;;;;;;;2.13;1.07;;;;;;;;;;20939797;28;20679;-65
2022/11/11 05:28:34;;;;;;;2.77;1.27;;;;;;;;;;20943986;28;20220;-65
2022/11/11 05:38:55;;;;;;;2.67;1.33;;;;;;;;;;20965705;22;20228;-68
2022/11/11 05:49:16;;;;;;;1.73;0.97;;;;;;;;;;21046011;28;20249;-68
2022/11/11 05:59:37;;;;;;;5.57;1.30;;;;;;;;;;21069082;28;20244;-68
2022/11/11 06:10:29;;;;;;;1.27;0.90;;;;;;;;;;21040494;28;20204;-68
2022/11/11 06:20:37;;;;;;;1.60;0.90;;;;;;;;;;21057179;28;20224;-68
2022/11/11 06:30:57;;;;;;;1.90;0.90;;;;;;;;;;21053672;28;20200;-68
2022/11/11 06:41:18;;;;;;;1.63;1.03;;;;;;;;;;21073096;28;20254;-68
2022/11/11 06:51:39;;;;;;;2.13;1.10;;;;;;;;;;21056723;28;20740;-68
2022/11/11 07:01:59;;;;;;;1.60;1.00;;;7.50;99.90;;;;;;21062341;28;20220;-68
2022/11/11 07:12:19;;;;;;;2.30;1.30;;;;;;;;;;21064500;28;20212;-68
2022/11/11 07:22:45;;;;;;;1.30;0.87;;;;;;;;;;21051147;28;20641;-68
2022/11/11 07:33:11;;;;;;;2.40;1.20;;;;;;;;;;21065385;28;20266;-67
2022/11/11 07:43:31;;;;;;;1.40;0.90;;;;;;;;;;21050917;28;20219;-67
2022/11/11 07:53:52;;;;;;;1.23;0.90;;;;;;;;;;21063494;28;20274;-67
2022/11/11 08:04:12;;;;;;;1.27;0.70;;;;;;;;;;21048650;28;20270;-67
2022/11/11 08:14:33;;;;;;;1.53;0.80;;;;;;;;;;21075217;28;20236;-67
2022/11/11 08:24:54;;;;;;;1.20;0.60;;;;;;;;;;21060731;28;20768;-67
2022/11/11 08:35:14;;;;;;;1.43;0.80;;;;;;;;;;21056800;28;20238;-67
2022/11/11 08:45:35;;;;;;;3.53;0.87;;;3.30;99.90;;;;;;20957953;28;20286;-67
2022/11/11 08:55:55;;;;;;;2.07;0.83;;;;;;;;;;21023457;28;20667;-67
2022/11/11 09:06:16;;;;;;;1.13;0.70;;;7.30;99.90;;;;;;21036477;28;20204;-67
2022/11/11 09:16:36;;;;;;;1.97;0.97;;;;;;;;;;21040856;28;20228;-67
2022/11/11 09:26:56;;;;;;;1.70;0.87;;;;;;;;;;21018862;28;20908;-67
2022/11/11 09:37:17;;;;;;;1.60;0.80;;;;;;;;;;20969372;28;20224;-68
2022/11/11 09:47:38;;;;;;;3.93;1.43;;;;;;;;;;20971562;28;20362;-67
2022/11/11 09:58:08;;;;;;;3.53;1.57;;;;;;;;;;20971421;28;20248;-67
2022/11/11 10:08:34;;;;;;;1.97;1.27;;;;;;;;;;20970738;28;20554;-68
2022/11/11 10:19:07;;;;;;;2.87;1.30;;;;;;;;;;20970061;28;20274;-68
2022/11/11 10:29:35;;;;;;;3.37;1.97;;;7.70;99.90;;;;;;20978574;28;20266;-68
2022/11/11 10:40:24;;;;;;;1.87;1.20;;;7.80;99.90;;;;;;20985730;28;20225;-68
2022/11/11 10:50:55;;;;;;;1.93;1.20;;;8.00;99.90;;;;;;20998320;28;20221;-68
2022/11/11 11:01:20;;;;;;;1.40;0.80;;;;;;;;;;20984242;28;20278;-68
2022/11/11 11:11:50;;;;;;;2.20;1.10;;;;;;;;;;20983334;28;20621;-68
2022/11/11 11:22:11;;;;;;;4.07;1.43;;;;;;;;;;20982354;28;20638;-68
2022/11/11 11:32:31;;;;;;;4.57;1.40;;;8.30;99.90;;;;;;20981710;28;20545;-68
2022/11/11 11:42:52;;;;;;;2.40;1.10;;;;;;;;;;20994512;22;20224;-68
2022/11/11 11:53:37;;;;;;;2.70;1.40;;;8.20;99.90;;;;;;20966061;28;20579;-69
2022/11/11 12:04:07;;;;;;;2.13;1.33;;;8.30;99.90;;;;;;20983569;28;20221;-69
2022/11/11 12:14:46;;;;;;;3.10;1.50;;;8.20;99.90;;;;;;20983768;28;20246;-69
2022/11/11 12:25:43;;;;;;;2.90;1.83;;;8.20;99.90;;;;;;20967659;28;20266;-69
2022/11/11 12:36:25;;;;;;;2.77;1.60;;;8.20;99.90;;;;;;20965143;28;20213;-69
2022/11/11 12:47:21;;;;;;;2.97;1.70;;;8.40;99.90;;;;;;20962891;28;20266;-69
2022/11/11 12:57:41;;;;;;;4.13;1.93;;;;;;;;;;20949043;28;20217;-69
2022/11/11 13:08:12;;;;;;;2.97;1.87;;;;;;;;;;20959627;28;20205;-69
2022/11/11 13:18:32;;;;;;;3.53;2.00;;;;;;;;;;20959963;28;20217;-69
2022/11/11 13:28:57;;;;;;;4.40;2.60;;;;;;;;;;20972275;28;20217;-69
2022/11/11 13:39:27;;;;;;;2.93;1.93;;;8.50;99.90;;;;;;20948366;28;20218;-68
2022/11/11 13:49:56;;;;;;;3.07;1.90;;;;;;;;;;21019096;28;20212;-69
2022/11/11 14:00:17;;;;;;;3.53;2.13;;;;;;;;;;21051901;28;20224;-69
2022/11/11 14:10:48;;;;;;;3.50;2.00;;;;;;;;;;21003485;28;20224;-69
2022/11/11 14:21:09;;;;;;;4.83;2.53;;;;;;;;;;20958296;28;20213;-68
2022/11/11 14:32:12;;;;;;;3.50;2.20;;;8.50;99.90;;;;;;20947271;28;20205;-69
2022/11/11 14:42:40;;;;;;;3.80;2.40;;;8.60;99.90;;;;;;20946007;28;20695;-69
2022/11/11 14:53:23;;;;;;;3.63;2.40;;;;;;;;;;20966885;28;20216;-69
2022/11/11 15:03:52;;;;;;;4.70;2.93;;;8.60;99.90;;;;;;21062462;22;20656;-67
2022/11/11 15:14:19;;;;;;;5.20;3.13;;;;;;;;;;20961318;28;20228;-67
2022/11/11 15:24:48;;;;;;;4.43;2.53;;;;;;;;;;20954018;28;20844;-67
2022/11/11 15:35:29;;;;;;;3.93;2.43;;;;;;;;;;20951467;28;20329;-67
2022/11/11 15:45:54;;;;;;;4.23;2.80;;;8.50;99.90;;;;;;20979573;28;20295;-67
2022/11/11 15:56:31;;;;;;;5.60;3.20;;;;;;;;;;21006103;28;20310;-68
2022/11/11 16:06:51;;;;;;;4.37;2.83;;;;;;;;;;20977720;28;20764;-67
2022/11/11 16:17:13;;;;;;;6.30;3.20;;;;;;;;;;20961394;28;20229;-67
2022/11/11 16:27:34;;;;;;;3.93;2.50;;;;;;;;;;20976869;28;20217;-68
2022/11/11 16:37:54;;;;;;;4.33;2.43;;;;;;;;;;20974020;28;20213;-68
2022/11/11 16:48:35;;;;;;;5.10;3.10;;;;;;;;;;20973739;28;20545;-67
2022/11/11 16:59:04;;;;;;;5.50;3.17;;;;;;;;;;20984253;28;20353;-68
2022/11/11 17:09:39;;;;;;;5.63;3.13;;;8.30;99.90;;;;;;20973098;28;20247;-67
2022/11/11 17:20:11;;;;;;;4.47;2.80;;;;;;;;;;20971955;28;20374;-67
2022/11/11 17:30:31;;;;;;;4.97;3.33;;;;;;;;;;20972865;28;20630;-67
2022/11/11 17:40:52;;;;;;;5.87;2.70;;;;;;;;;;20954089;28;20294;-68
2022/11/11 17:51:12;;;;;;;5.03;3.03;;;;;;;;;;20975053;28;20560;-68
2022/11/11 18:01:32;;;;;;;5.00;2.73;;;;;;;;;;20976118;28;20217;-68
2022/11/11 18:11:54;;;;;;;7.80;3.43;;;;;;;;;;20991047;22;20604;-69
2022/11/11 18:22:14;;;;;;;4.50;2.90;;;;;;;;;;21109378;28;20645;-69
2022/11/11 18:32:34;;;;;;;6.70;2.70;;;;;;;;;;21206592;28;20350;-67
2022/11/11 18:42:55;;;;;;;4.70;2.53;;;;;;;;;;21227965;28;20219;-68
2022/11/11 18:53:15;;;;;;;2.33;1.30;;;;;;;;;;21239846;27;20291;-68
2022/11/11 19:03:37;;;;;;;4.30;2.03;;;;;;;;;;21244276;27;20222;-68
2022/11/11 19:13:58;;;;;;;3.27;1.90;;;;;;;;;;21245542;27;20705;-68
2022/11/11 19:24:19;;;;;;;4.90;2.80;;;;;;;;;;21244697;27;20279;-67
2022/11/11 19:34:39;;;;;;;5.73;2.60;;;;;;;;;;21244545;27;20294;-69
2022/11/11 19:45:01;;;;;;;9.17;3.13;;;;;;;;;;21244299;27;20271;-69
2022/11/11 19:55:22;;;;;;;8.30;3.17;;;;;;;;;;21244132;27;20211;-71
2022/11/11 20:05:42;;;;;;;5.60;2.27;;;;;;;;;;21241159;27;20673;-70
2022/11/11 20:16:03;;;;;;;4.90;2.70;;;8.40;99.90;;;;;;21240921;27;20586;-68
2022/11/11 20:26:23;;;;;;;6.87;3.33;;;;;;;;;;21239756;27;20199;-68
2022/11/11 20:36:44;;;;;;;5.27;3.17;;;;;;;;;;21204453;27;20275;-69
2022/11/11 20:47:06;;;;;;;5.10;2.97;;;8.60;99.90;;;;;;21246280;27;20223;-70
2022/11/11 20:57:26;;;;;;;7.43;2.20;;;;;;;;;;21218533;27;20366;-69
2022/11/11 21:07:49;;;;;;;5.80;1.90;;;;;;;;;;21236474;27;20260;-69
2022/11/11 21:18:10;;;;;;;5.77;1.73;;;;;;;;;;21237002;27;20218;-70
2022/11/11 21:28:32;;;;;;;4.53;1.80;;;;;;;;;;21214917;27;20619;-69
2022/11/11 21:38:52;;;;;;;2.07;1.30;;;;;;;;;;21213376;27;20214;-70
2022/11/11 21:49:13;;;;;;;2.77;1.40;;;;;;;;;;21229064;27;20223;-70
2022/11/11 21:59:33;;;;;;;6.63;2.07;;;;;;;;;;21225847;27;20210;-70
2022/11/11 22:09:54;;;;;;;3.17;1.83;;;;;;;;;;21209631;27;20594;-69
2022/11/11 22:20:14;;;;;;;3.30;1.70;;;8.10;99.90;;;;;;21231060;27;20223;-69
2022/11/11 22:30:34;;;;;;;7.80;2.37;;;;;;;;;;21248543;27;20175;-68
2022/11/11 22:41:00;;;;;;;3.33;1.50;;;7.90;99.90;;;;;;21247214;27;20589;-69
2022/11/11 22:51:22;;;;;;;4.03;1.67;;;8.00;99.90;;;;;;21245034;27;20677;-69
2022/11/11 23:01:44;;;;;;;2.83;1.70;;;;;;;;;;21243334;27;20260;-69
2022/11/11 23:12:04;;;;;;;1.97;1.17;;;;;;;;;;21245499;27;20215;-69
2022/11/11 23:22:24;;;;;;;3.83;1.63;;;;;;;;;;21248715;27;20580;-69
2022/11/11 23:32:45;;;;;;;7.83;1.60;;;;;;;;;;21247366;27;20673;-69
2022/11/11 23:43:05;;;;;;;3.17;1.67;;;;;;;;;;21246920;27;20252;-69
2022/11/11 23:53:26;;;;;;;3.33;1.33;;;;;;;;;;21244479;27;20214;-69
